createdAt,value
2023-05-25T00:00:08.313Z,1101.46
2023-05-25T00:01:08.302Z,1101.46
2023-05-25T00:02:08.320Z,1101.46
2023-05-25T00:03:08.355Z,1101.46
2023-05-25T00:04:08.314Z,1101.46
2023-05-25T00:05:08.259Z,1101.46
2023-05-25T00:06:11.224Z,1101.46
2023-05-25T00:07:11.220Z,1101.46
2023-05-25T00:08:08.210Z,1101.46
2023-05-25T00:09:08.186Z,1101.46
2023-05-25T00:10:08.197Z,1101.46
2023-05-25T00:11:08.184Z,1101.46
2023-05-25T00:12:08.145Z,1101.46
2023-05-25T00:13:08.127Z,1101.46
2023-05-25T00:14:08.113Z,1101.46
2023-05-25T00:15:08.150Z,1101.46
2023-05-25T00:16:08.085Z,1101.46
2023-05-25T00:17:08.219Z,1101.46
2023-05-25T00:18:08.088Z,1101.46
2023-05-25T00:19:08.045Z,1101.46
2023-05-25T00:20:08.180Z,1101.46
2023-05-25T00:21:08.021Z,1101.46
2023-05-25T00:22:08.009Z,1101.46
2023-05-25T00:23:07.984Z,1101.46
2023-05-25T00:24:07.979Z,1101.46
2023-05-25T00:25:07.996Z,1101.46
2023-05-25T00:26:10.953Z,1101.46
2023-05-25T00:27:10.973Z,1101.46
2023-05-25T00:28:07.920Z,1101.46
2023-05-25T00:29:07.915Z,1101.46
2023-05-25T00:30:07.900Z,1101.46
2023-05-25T00:31:07.910Z,1101.46
2023-05-25T00:32:07.907Z,1101.46
2023-05-25T00:33:07.883Z,1101.46
2023-05-25T00:34:07.852Z,1101.46
2023-05-25T00:35:07.828Z,1101.46
2023-05-25T00:36:07.815Z,1101.46
2023-05-25T00:37:07.817Z,1101.46
2023-05-25T00:38:07.824Z,1101.46
2023-05-25T00:39:07.771Z,1101.46
2023-05-25T00:40:07.761Z,1101.46
2023-05-25T00:41:07.740Z,1101.46
2023-05-25T00:42:07.754Z,1101.46
2023-05-25T00:43:07.740Z,1101.46
2023-05-25T00:44:07.731Z,1101.46
2023-05-25T00:45:07.700Z,1101.46
2023-05-25T00:46:10.762Z,1101.46
2023-05-25T00:47:10.663Z,1101.46
2023-05-25T00:48:07.718Z,1101.46
2023-05-25T00:49:07.656Z,1101.46
2023-05-25T00:50:07.633Z,1101.46
2023-05-25T00:51:07.616Z,1101.46
2023-05-25T00:52:07.628Z,1101.46
2023-05-25T00:53:07.624Z,1101.46
2023-05-25T00:54:07.665Z,1101.46
2023-05-25T00:55:07.559Z,1101.46
2023-05-25T00:56:07.543Z,1101.46
2023-05-25T00:57:07.533Z,1101.46
2023-05-25T00:58:07.522Z,1100.18
2023-05-25T00:59:07.497Z,1101.46
2023-05-25T01:00:07.549Z,1100.18
2023-05-25T01:01:07.471Z,1100.18
2023-05-25T01:02:07.577Z,1100.18
2023-05-25T01:03:09.697Z,1100.18
2023-05-25T01:04:07.694Z,1100.18
2023-05-25T01:05:07.404Z,1100.18
2023-05-25T01:06:10.427Z,1100.18
2023-05-25T01:07:10.387Z,1100.18
2023-05-25T01:08:07.398Z,1100.18
2023-05-25T01:09:07.375Z,1100.18
2023-05-25T01:10:07.371Z,1100.18
2023-05-25T01:11:07.353Z,1100.18
2023-05-25T01:12:07.320Z,1100.18
2023-05-25T01:13:07.304Z,1100.18
2023-05-25T01:14:07.335Z,1100.18
2023-05-25T01:15:07.303Z,1100.18
2023-05-25T01:16:07.302Z,1100.18
2023-05-25T01:17:07.254Z,1100.18
2023-05-25T01:18:07.233Z,1100.18
2023-05-25T01:19:07.245Z,1100.18
2023-05-25T01:20:11.118Z,1100.18
2023-05-25T01:21:07.190Z,1100.18
2023-05-25T01:22:07.207Z,1100.18
2023-05-25T01:23:07.161Z,1100.18
2023-05-25T01:24:07.153Z,1100.18
2023-05-25T01:25:07.137Z,1100.18
2023-05-25T01:26:10.147Z,1100.18
2023-05-25T01:27:10.114Z,1100.18
2023-05-25T01:28:07.120Z,1100.18
2023-05-25T01:29:07.074Z,1100.18
2023-05-25T01:30:07.073Z,1100.18
2023-05-25T01:31:07.079Z,1100.18
2023-05-25T01:32:07.080Z,1100.18
2023-05-25T01:33:07.051Z,1100.18
2023-05-25T01:34:07.011Z,1100.18
2023-05-25T01:35:07.073Z,1100.18
2023-05-25T01:36:06.987Z,1100.18
2023-05-25T01:37:06.967Z,1100.18
2023-05-25T01:38:06.974Z,1100.18
2023-05-25T01:39:06.949Z,1100.18
2023-05-25T01:40:06.929Z,1100.18
2023-05-25T01:41:06.941Z,1100.18
2023-05-25T01:42:06.902Z,1100.18
2023-05-25T01:43:06.891Z,1100.18
2023-05-25T01:44:06.875Z,1100.18
2023-05-25T01:45:06.856Z,1100.18
2023-05-25T01:46:09.926Z,1100.18
2023-05-25T01:47:09.838Z,1100.18
2023-05-25T01:48:06.841Z,1100.18
2023-05-25T01:49:06.831Z,1100.18
2023-05-25T01:50:06.817Z,1100.18
2023-05-25T01:51:06.781Z,1100.18
2023-05-25T01:52:06.828Z,1100.18
2023-05-25T01:53:06.746Z,1100.18
2023-05-25T01:54:06.766Z,1100.18
2023-05-25T01:55:06.713Z,1100.18
2023-05-25T01:56:06.717Z,1100.18
2023-05-25T01:57:06.722Z,1100.18
2023-05-25T01:58:06.690Z,1100.18
2023-05-25T01:59:06.673Z,1100.18
2023-05-25T02:00:06.663Z,1100.18
2023-05-25T02:01:06.670Z,1100.18
2023-05-25T02:02:06.680Z,1100.18
2023-05-25T02:03:06.700Z,1100.18
2023-05-25T02:04:06.619Z,1100.18
2023-05-25T02:05:06.599Z,1100.18
2023-05-25T02:06:09.589Z,1100.18
2023-05-25T02:07:09.583Z,1100.18
2023-05-25T02:08:06.548Z,1100.18
2023-05-25T02:09:06.535Z,1100.18
2023-05-25T02:10:06.601Z,1100.18
2023-05-25T02:11:06.523Z,1100.18
2023-05-25T02:12:06.495Z,1100.18
2023-05-25T02:13:06.501Z,1100.18
2023-05-25T02:14:06.497Z,1100.18
2023-05-25T02:15:06.446Z,1100.18
2023-05-25T02:16:06.515Z,1100.18
2023-05-25T02:17:06.427Z,1100.18
2023-05-25T02:18:06.412Z,1100.18
2023-05-25T02:19:06.417Z,1100.18
2023-05-25T02:20:06.541Z,1100.18
2023-05-25T02:21:06.390Z,1098.91
2023-05-25T02:22:06.366Z,1098.91
2023-05-25T02:23:06.341Z,1100.18
2023-05-25T02:24:06.337Z,1100.18
2023-05-25T02:25:06.323Z,1100.18
2023-05-25T02:26:09.329Z,1100.18
2023-05-25T02:27:09.294Z,1100.18
2023-05-25T02:28:06.295Z,1100.18
2023-05-25T02:29:06.260Z,1100.18
2023-05-25T02:30:06.276Z,1100.18
2023-05-25T02:31:06.267Z,1100.18
2023-05-25T02:32:06.216Z,1100.18
2023-05-25T02:33:06.263Z,1100.18
2023-05-25T02:34:06.195Z,1100.18
2023-05-25T02:35:06.180Z,1100.18
2023-05-25T02:36:06.198Z,1100.18
2023-05-25T02:37:06.164Z,1100.18
2023-05-25T02:38:06.142Z,1100.18
2023-05-25T02:39:06.123Z,1100.18
2023-05-25T02:40:06.119Z,1100.18
2023-05-25T02:41:06.125Z,1100.18
2023-05-25T02:42:06.091Z,1100.18
2023-05-25T02:43:06.091Z,1100.18
2023-05-25T02:44:06.061Z,1100.18
2023-05-25T02:45:06.038Z,1100.18
2023-05-25T02:46:09.100Z,1100.18
2023-05-25T02:47:09.042Z,1100.18
2023-05-25T02:48:06.075Z,1100.18
2023-05-25T02:49:05.994Z,1100.18
2023-05-25T02:50:05.981Z,1100.18
2023-05-25T02:51:05.990Z,1100.18
2023-05-25T02:52:05.951Z,1100.18
2023-05-25T02:53:05.939Z,1100.18
2023-05-25T02:54:05.922Z,1100.18
2023-05-25T02:55:05.912Z,1100.18
2023-05-25T02:56:05.909Z,1100.18
2023-05-25T02:57:05.906Z,1100.18
2023-05-25T02:58:05.881Z,1100.18
2023-05-25T02:59:05.852Z,1100.18
2023-05-25T03:00:05.831Z,1100.18
2023-05-25T03:01:05.845Z,1100.18
2023-05-25T03:02:05.836Z,1100.18
2023-05-25T03:03:05.908Z,1100.18
2023-05-25T03:04:05.897Z,1100.18
2023-05-25T03:05:05.781Z,1100.18
2023-05-25T03:06:08.748Z,1100.18
2023-05-25T03:07:08.767Z,1100.18
2023-05-25T03:08:05.758Z,1100.18
2023-05-25T03:09:05.712Z,1100.18
2023-05-25T03:10:05.697Z,1100.18
2023-05-25T03:11:05.693Z,1100.18
2023-05-25T03:12:05.724Z,1100.18
2023-05-25T03:13:05.656Z,1100.18
2023-05-25T03:14:05.648Z,1100.18
2023-05-25T03:15:05.641Z,1100.18
2023-05-25T03:16:05.622Z,1100.18
2023-05-25T03:17:05.630Z,1100.18
2023-05-25T03:18:05.712Z,1100.18
2023-05-25T03:19:05.654Z,1100.18
2023-05-25T03:20:05.584Z,1100.18
2023-05-25T03:21:05.545Z,1100.18
2023-05-25T03:22:05.553Z,1100.18
2023-05-25T03:23:05.530Z,1100.18
2023-05-25T03:24:05.560Z,1100.18
2023-05-25T03:25:05.513Z,1100.18
2023-05-25T03:26:08.486Z,1100.18
2023-05-25T03:27:08.477Z,1100.18
2023-05-25T03:28:05.471Z,1100.18
2023-05-25T03:29:05.468Z,1100.18
2023-05-25T03:30:05.440Z,1100.18
2023-05-25T03:31:05.420Z,1100.18
2023-05-25T03:32:05.456Z,1100.18
2023-05-25T03:33:05.459Z,1100.18
2023-05-25T03:34:05.397Z,1100.18
2023-05-25T03:35:05.421Z,1100.18
2023-05-25T03:36:05.354Z,1100.18
2023-05-25T03:37:05.342Z,1100.18
2023-05-25T03:38:05.319Z,1100.18
2023-05-25T03:39:05.328Z,1100.18
2023-05-25T03:40:05.295Z,1100.18
2023-05-25T03:41:05.325Z,1100.18
2023-05-25T03:42:05.278Z,1100.18
2023-05-25T03:43:05.282Z,1100.18
2023-05-25T03:44:05.251Z,1100.18
2023-05-25T03:45:05.223Z,1100.18
2023-05-25T03:46:08.275Z,1100.18
2023-05-25T03:47:08.198Z,1100.18
2023-05-25T03:48:05.234Z,1100.18
2023-05-25T03:49:05.168Z,1100.18
2023-05-25T03:50:05.191Z,1100.18
2023-05-25T03:51:05.197Z,1100.18
2023-05-25T03:52:05.133Z,1100.18
2023-05-25T03:53:05.120Z,1100.18
2023-05-25T03:54:05.106Z,1100.18
2023-05-25T03:55:05.097Z,1101.46
2023-05-25T03:56:05.068Z,1101.46
2023-05-25T03:57:05.087Z,1101.46
2023-05-25T03:58:05.059Z,1101.46
2023-05-25T03:59:05.055Z,1101.46
2023-05-25T04:00:05.017Z,1101.46
2023-05-25T04:01:05.578Z,1101.46
2023-05-25T04:02:05.022Z,1101.46
2023-05-25T04:03:05.122Z,1101.46
2023-05-25T04:04:05.039Z,1101.46
2023-05-25T04:05:04.955Z,1101.46
2023-05-25T04:06:07.935Z,1101.46
2023-05-25T04:07:07.940Z,1101.46
2023-05-25T04:08:04.949Z,1101.46
2023-05-25T04:09:04.892Z,1101.46
2023-05-25T04:10:04.898Z,1101.46
2023-05-25T04:11:04.881Z,1101.46
2023-05-25T04:12:04.857Z,1101.46
2023-05-25T04:13:04.843Z,1101.46
2023-05-25T04:14:04.864Z,1101.46
2023-05-25T04:15:04.827Z,1101.46
2023-05-25T04:16:04.842Z,1101.46
2023-05-25T04:17:04.780Z,1101.46
2023-05-25T04:18:04.799Z,1101.46
2023-05-25T04:19:04.758Z,1101.46
2023-05-25T04:20:04.798Z,1101.46
2023-05-25T04:21:04.727Z,1101.46
2023-05-25T04:22:04.734Z,1101.46
2023-05-25T04:23:04.712Z,1101.46
2023-05-25T04:24:04.685Z,1101.46
2023-05-25T04:25:04.673Z,1102.73
2023-05-25T04:26:07.663Z,1102.73
2023-05-25T04:27:07.691Z,1102.73
2023-05-25T04:28:04.631Z,1102.73
2023-05-25T04:29:04.652Z,1102.73
2023-05-25T04:30:04.603Z,1102.73
2023-05-25T04:31:04.592Z,1102.73
2023-05-25T04:32:04.769Z,1102.73
2023-05-25T04:33:04.645Z,1102.73
2023-05-25T04:34:04.556Z,1102.73
2023-05-25T04:35:04.564Z,1102.73
2023-05-25T04:36:04.521Z,1102.73
2023-05-25T04:37:04.596Z,1102.73
2023-05-25T04:38:04.492Z,1102.73
2023-05-25T04:39:04.486Z,1102.73
2023-05-25T04:40:04.456Z,1102.73
2023-05-25T04:41:04.454Z,1102.73
2023-05-25T04:42:04.889Z,1102.73
2023-05-25T04:43:04.443Z,1102.73
2023-05-25T04:44:09.520Z,1102.73
2023-05-25T04:45:05.407Z,1102.73
2023-05-25T04:46:07.440Z,1102.73
2023-05-25T04:47:07.382Z,1102.73
2023-05-25T04:48:04.485Z,1102.73
2023-05-25T04:49:04.343Z,1102.73
2023-05-25T04:50:04.388Z,1102.73
2023-05-25T04:51:04.315Z,1102.73
2023-05-25T04:52:04.313Z,1102.73
2023-05-25T04:53:04.285Z,1102.73
2023-05-25T04:54:04.271Z,1102.73
2023-05-25T04:55:04.322Z,1102.73
2023-05-25T04:56:04.250Z,1102.73
2023-05-25T04:57:04.236Z,1102.73
2023-05-25T04:58:04.215Z,1102.73
2023-05-25T04:59:04.198Z,1102.73
2023-05-25T05:00:04.189Z,1102.73
2023-05-25T05:01:04.220Z,1102.73
2023-05-25T05:02:04.161Z,1102.73
2023-05-25T05:03:04.238Z,1102.73
2023-05-25T05:04:04.261Z,1102.73
2023-05-25T05:05:04.151Z,1102.73
2023-05-25T05:06:07.133Z,1102.73
2023-05-25T05:07:07.082Z,1102.73
2023-05-25T05:08:04.098Z,1102.73
2023-05-25T05:09:04.065Z,1102.73
2023-05-25T05:10:04.050Z,1102.73
2023-05-25T05:11:04.066Z,1102.73
2023-05-25T05:12:04.062Z,1102.73
2023-05-25T05:13:04.007Z,1102.73
2023-05-25T05:14:03.991Z,1102.73
2023-05-25T05:15:03.983Z,1102.73
2023-05-25T05:16:03.968Z,1102.73
2023-05-25T05:17:04.058Z,1102.73
2023-05-25T05:18:04.006Z,1102.73
2023-05-25T05:19:03.927Z,1102.73
2023-05-25T05:20:03.939Z,1102.73
2023-05-25T05:21:03.897Z,1102.73
2023-05-25T05:22:03.907Z,1102.73
2023-05-25T05:23:03.915Z,1102.73
2023-05-25T05:24:03.851Z,1102.73
2023-05-25T05:25:03.845Z,1102.73
2023-05-25T05:26:06.825Z,1102.73
2023-05-25T05:27:06.817Z,1102.73
2023-05-25T05:28:03.821Z,1102.73
2023-05-25T05:29:03.793Z,1102.73
2023-05-25T05:30:03.774Z,1102.73
2023-05-25T05:31:03.791Z,1102.73
2023-05-25T05:32:03.745Z,1102.73
2023-05-25T05:33:03.873Z,1102.73
2023-05-25T05:34:03.773Z,1089.60
2023-05-25T05:35:03.704Z,1064.11
2023-05-25T05:36:03.692Z,1050.77
2023-05-25T05:37:03.687Z,1034.57
2023-05-25T05:38:03.710Z,943.85
2023-05-25T05:39:03.649Z,951.13
2023-05-25T05:40:03.646Z,995.49
2023-05-25T05:41:03.616Z,1020.88
2023-05-25T05:42:03.619Z,983.71
2023-05-25T05:43:03.619Z,1047.10
2023-05-25T05:44:03.568Z,1032.37
2023-05-25T05:45:03.569Z,1037.39
2023-05-25T05:46:06.615Z,950.35
2023-05-25T05:47:06.538Z,916.65
2023-05-25T05:48:03.663Z,959.38
2023-05-25T05:49:03.522Z,1008.64
2023-05-25T05:50:03.490Z,959.84
2023-05-25T05:51:03.531Z,922.94
2023-05-25T05:52:03.466Z,994.56
2023-05-25T05:53:03.466Z,1031.64
2023-05-25T05:54:03.436Z,1050.79
2023-05-25T05:55:03.451Z,1000.29
2023-05-25T05:56:03.467Z,835.25
2023-05-25T05:57:03.404Z,903.05
2023-05-25T05:58:03.384Z,850.40
2023-05-25T05:59:03.388Z,763.41
2023-05-25T06:00:03.367Z,739.51
2023-05-25T06:01:03.354Z,769.71
2023-05-25T06:02:03.414Z,822.63
2023-05-25T06:03:03.417Z,846.61
2023-05-25T06:04:03.294Z,797.42
2023-05-25T06:05:03.288Z,846.61
2023-05-25T06:06:06.324Z,802.46
2023-05-25T06:07:06.285Z,770.97
2023-05-25T06:08:05.142Z,846.61
2023-05-25T06:09:03.229Z,994.34
2023-05-25T06:10:03.236Z,1040.94
2023-05-25T06:11:03.199Z,1041.38
2023-05-25T06:12:03.196Z,1059.22
2023-05-25T06:13:03.199Z,1075.24
2023-05-25T06:14:03.166Z,1094.69
2023-05-25T06:15:03.185Z,1096.32
2023-05-25T06:16:03.141Z,1090.37
2023-05-25T06:17:03.181Z,1091.52
2023-05-25T06:18:03.115Z,1084.72
2023-05-25T06:19:03.091Z,1094.72
2023-05-25T06:20:03.148Z,1099.66
2023-05-25T06:21:03.056Z,1100.79
2023-05-25T06:22:03.074Z,1094.35
2023-05-25T06:23:03.038Z,1096.00
2023-05-25T06:24:03.013Z,1094.85
2023-05-25T06:25:03.045Z,1101.95
2023-05-25T06:26:05.995Z,1081.63
2023-05-25T06:27:06.011Z,1033.18
2023-05-25T06:28:02.967Z,1008.60
2023-05-25T06:29:02.959Z,1026.69
2023-05-25T06:30:02.960Z,1050.87
2023-05-25T06:31:02.927Z,1075.22
2023-05-25T06:32:02.965Z,1085.70
2023-05-25T06:33:02.936Z,1094.65
2023-05-25T06:34:02.893Z,1091.25
2023-05-25T06:35:02.872Z,1089.80
2023-05-25T06:36:02.898Z,1096.12
2023-05-25T06:37:02.852Z,1092.25
2023-05-25T06:38:02.829Z,1086.89
2023-05-25T06:39:02.865Z,1091.94
2023-05-25T06:40:02.808Z,1087.76
2023-05-25T06:41:02.790Z,1091.45
2023-05-25T06:42:02.773Z,1093.73
2023-05-25T06:43:02.768Z,1097.46
2023-05-25T06:44:02.743Z,1097.98
2023-05-25T06:45:02.757Z,1102.73
2023-05-25T06:46:05.734Z,1102.73
2023-05-25T06:47:05.712Z,1102.73
2023-05-25T06:48:02.702Z,1102.73
2023-05-25T06:49:02.691Z,1102.73
2023-05-25T06:50:02.703Z,1102.73
2023-05-25T06:51:02.654Z,1102.73
2023-05-25T06:52:02.650Z,1102.73
2023-05-25T06:53:02.638Z,1099.29
2023-05-25T06:54:02.604Z,1102.73
2023-05-25T06:55:02.599Z,1100.32
2023-05-25T06:56:02.625Z,1097.62
2023-05-25T06:57:02.561Z,1102.25
2023-05-25T06:58:02.550Z,1095.86
2023-05-25T06:59:02.534Z,1102.51
2023-05-25T07:00:02.526Z,1099.73
2023-05-25T07:01:02.595Z,1083.91
2023-05-25T07:02:02.534Z,1069.41
2023-05-25T07:03:02.493Z,1056.33
2023-05-25T07:04:02.468Z,1061.06
2023-05-25T07:05:02.527Z,1053.29
2023-05-25T07:06:05.477Z,1055.17
2023-05-25T07:07:05.434Z,1061.80
2023-05-25T07:08:02.412Z,1085.45
2023-05-25T07:09:02.396Z,1089.32
2023-05-25T07:10:02.392Z,1083.68
2023-05-25T07:11:02.383Z,1090.62
2023-05-25T07:12:02.387Z,1088.97
2023-05-25T07:13:02.375Z,1096.46
2023-05-25T07:14:02.326Z,1102.73
2023-05-25T07:15:02.334Z,1102.29
2023-05-25T07:16:02.414Z,1100.22
2023-05-25T07:17:02.324Z,1102.49
2023-05-25T07:18:02.351Z,1102.14
2023-05-25T07:19:02.285Z,1100.26
2023-05-25T07:20:02.265Z,1096.54
2023-05-25T07:21:02.246Z,1094.99
2023-05-25T07:22:02.256Z,1095.23
2023-05-25T07:23:02.213Z,1098.97
2023-05-25T07:24:02.212Z,1097.18
2023-05-25T07:25:02.182Z,1097.36
2023-05-25T07:26:06.069Z,1099.73
2023-05-25T07:27:05.215Z,1102.22
2023-05-25T07:28:02.151Z,1102.73
2023-05-25T07:29:02.148Z,1101.38
2023-05-25T07:30:02.119Z,1100.26
2023-05-25T07:31:02.131Z,1095.57
2023-05-25T07:32:02.090Z,1085.45
2023-05-25T07:33:02.217Z,1084.15
2023-05-25T07:34:02.091Z,1089.15
2023-05-25T07:35:02.049Z,1083.46
2023-05-25T07:36:02.052Z,1076.01
2023-05-25T07:37:02.067Z,1093.13
2023-05-25T07:38:02.047Z,1084.57
2023-05-25T07:39:01.992Z,1088.32
2023-05-25T07:40:01.986Z,1079.22
2023-05-25T07:41:01.966Z,1093.43
2023-05-25T07:42:02.008Z,1092.66
2023-05-25T07:43:02.037Z,1093.99
2023-05-25T07:44:01.973Z,1083.23
2023-05-25T07:45:01.918Z,1092.26
2023-05-25T07:46:04.904Z,1093.04
2023-05-25T07:47:04.936Z,1084.78
2023-05-25T07:48:01.877Z,1084.75
2023-05-25T07:49:01.884Z,1086.61
2023-05-25T07:50:01.854Z,1086.93
2023-05-25T07:51:01.828Z,1084.91
2023-05-25T07:52:01.824Z,1083.59
2023-05-25T07:53:01.839Z,1086.30
2023-05-25T07:54:01.791Z,1082.20
2023-05-25T07:55:01.794Z,1085.74
2023-05-25T07:56:01.757Z,1086.11
2023-05-25T07:57:01.745Z,1084.77
2023-05-25T07:58:01.737Z,1083.75
2023-05-25T07:59:01.746Z,1091.21
2023-05-25T08:00:01.740Z,1093.24
2023-05-25T08:01:01.691Z,1086.15
2023-05-25T08:02:01.709Z,1077.64
2023-05-25T08:03:01.942Z,1072.66
2023-05-25T08:04:01.722Z,1073.87
2023-05-25T08:05:01.683Z,1086.73
2023-05-25T08:06:04.616Z,1086.02
2023-05-25T08:07:04.765Z,1089.80
2023-05-25T08:08:01.596Z,1093.56
2023-05-25T08:09:01.593Z,1085.08
2023-05-25T08:10:01.576Z,1070.81
2023-05-25T08:11:01.591Z,1066.48
2023-05-25T08:12:24.231Z,1049.92
2023-05-25T08:13:02.531Z,1060.06
2023-05-25T08:14:01.536Z,1053.62
2023-05-25T08:15:01.546Z,1045.89
2023-05-25T08:16:01.533Z,1046.73
2023-05-25T08:17:01.557Z,1060.63
2023-05-25T08:18:01.581Z,1048.90
2023-05-25T08:19:01.511Z,1078.42
2023-05-25T08:20:01.456Z,1088.05
2023-05-25T08:21:01.506Z,1083.23
2023-05-25T08:22:01.411Z,1066.52
2023-05-25T08:23:01.386Z,1029.88
2023-05-25T08:24:01.371Z,1031.12
2023-05-25T08:25:01.408Z,1053.70
2023-05-25T08:26:15.489Z,1039.68
2023-05-25T08:27:05.334Z,1074.81
2023-05-25T08:28:01.326Z,1051.16
2023-05-25T08:29:01.312Z,1047.99
2023-05-25T08:30:01.277Z,1041.45
2023-05-25T08:31:01.358Z,1002.47
2023-05-25T08:32:01.250Z,1029.16
2023-05-25T08:33:01.317Z,1035.98
2023-05-25T08:34:01.257Z,1036.36
2023-05-25T08:35:01.226Z,1034.66
2023-05-25T08:36:01.219Z,1002.07
2023-05-25T08:37:01.244Z,973.84
2023-05-25T08:38:01.176Z,973.55
2023-05-25T08:39:01.150Z,965.42
2023-05-25T08:40:01.175Z,972.03
2023-05-25T08:41:01.118Z,964.64
2023-05-25T08:42:01.118Z,994.20
2023-05-25T08:43:01.194Z,1014.13
2023-05-25T08:44:01.088Z,990.95
2023-05-25T08:45:01.071Z,1019.23
2023-05-25T08:46:04.095Z,1046.39
2023-05-25T08:47:04.038Z,1040.61
2023-05-25T08:48:01.124Z,1044.50
2023-05-25T08:49:01.131Z,1044.08
2023-05-25T08:50:01.025Z,1054.25
2023-05-25T08:51:01.080Z,1077.44
2023-05-25T08:52:00.975Z,1078.70
2023-05-25T08:53:00.988Z,1086.61
2023-05-25T08:54:00.981Z,1081.11
2023-05-25T08:55:00.932Z,1067.19
2023-05-25T08:56:00.918Z,1068.32
2023-05-25T08:57:00.936Z,1032.61
2023-05-25T08:58:00.898Z,994.50
2023-05-25T08:59:00.896Z,1008.76
2023-05-25T09:00:00.877Z,995.62
2023-05-25T09:01:00.846Z,1024.29
2023-05-25T09:02:00.905Z,1022.53
2023-05-25T09:03:00.904Z,993.79
2023-05-25T09:04:00.886Z,1005.96
2023-05-25T09:05:00.785Z,1018.96
2023-05-25T09:06:03.829Z,998.42
2023-05-25T09:07:10.481Z,1014.71
2023-05-25T09:08:01.809Z,1016.81
2023-05-25T09:09:00.741Z,1011.19
2023-05-25T09:10:00.736Z,1006.31
2023-05-25T09:11:01.081Z,975.56
2023-05-25T09:12:00.700Z,913.61
2023-05-25T09:13:12.797Z,895.70
2023-05-25T09:14:01.697Z,902.99
2023-05-25T09:15:00.677Z,890.87
2023-05-25T09:16:00.678Z,878.19
2023-05-25T09:17:00.659Z,868.08
2023-05-25T09:18:00.637Z,888.00
2023-05-25T09:19:00.635Z,847.87
2023-05-25T09:20:00.640Z,876.92
2023-05-25T09:21:00.697Z,899.15
2023-05-25T09:22:13.401Z,875.66
2023-05-25T09:23:01.549Z,893.37
2023-05-25T09:24:00.601Z,932.63
2023-05-25T09:25:00.533Z,960.57
2023-05-25T09:26:03.528Z,943.55
2023-05-25T09:27:03.572Z,975.35
2023-05-25T09:28:10.226Z,974.42
2023-05-25T09:29:01.476Z,997.17
2023-05-25T09:30:00.507Z,989.32
2023-05-25T09:31:00.466Z,1012.07
2023-05-25T09:32:00.493Z,1033.54
2023-05-25T09:33:00.502Z,1029.91
2023-05-25T09:34:00.597Z,996.20
2023-05-25T09:35:00.420Z,968.99
2023-05-25T09:36:00.389Z,934.52
2023-05-25T09:37:00.465Z,885.88
2023-05-25T09:38:00.559Z,904.62
2023-05-25T09:39:00.568Z,921.23
2023-05-25T09:40:00.357Z,899.02
2023-05-25T09:41:00.316Z,901.31
2023-05-25T09:42:00.304Z,936.72
2023-05-25T09:43:00.287Z,994.25
2023-05-25T09:44:10.536Z,1023.35
2023-05-25T09:45:01.282Z,1042.35
2023-05-25T09:46:03.263Z,1035.63
2023-05-25T09:47:03.240Z,1022.09
2023-05-25T09:48:00.287Z,954.99
2023-05-25T09:49:00.202Z,928.45
2023-05-25T09:50:00.319Z,868.08
2023-05-25T09:51:00.205Z,866.81
2023-05-25T09:52:00.167Z,922.20
2023-05-25T09:53:00.233Z,967.85
2023-05-25T09:54:00.152Z,1000.63
2023-05-25T09:55:00.229Z,1037.04
2023-05-25T09:56:01.200Z,1024.27
2023-05-25T09:57:00.144Z,1010.91
2023-05-25T09:58:00.124Z,965.07
2023-05-25T09:59:00.148Z,964.10
2023-05-25T10:00:00.170Z,982.65
2023-05-25T10:01:00.108Z,965.23
2023-05-25T10:02:00.138Z,953.01
2023-05-25T10:03:00.135Z,972.11
2023-05-25T10:04:04.598Z,908.32
2023-05-25T10:05:01.033Z,918.37
2023-05-25T10:06:02.983Z,919.69
2023-05-25T10:07:03.024Z,929.34
2023-05-25T10:08:00.006Z,938.64
2023-05-25T10:08:59.940Z,960.26
2023-05-25T10:09:59.939Z,968.11
2023-05-25T10:10:59.920Z,1019.43
2023-05-25T10:11:59.901Z,1004.17
2023-05-25T10:12:59.944Z,969.46
2023-05-25T10:13:59.878Z,905.69
2023-05-25T10:14:59.874Z,871.87
2023-05-25T10:15:59.905Z,869.34
2023-05-25T10:16:59.857Z,859.24
2023-05-25T10:17:59.852Z,856.71
2023-05-25T10:18:59.836Z,902.34
2023-05-25T10:19:59.879Z,950.50
2023-05-25T10:20:59.990Z,947.95
2023-05-25T10:21:59.778Z,955.55
2023-05-25T10:22:59.774Z,954.77
2023-05-25T10:23:59.785Z,930.33
2023-05-25T10:24:59.748Z,927.93
2023-05-25T10:26:02.736Z,931.22
2023-05-25T10:27:10.954Z,937.41
2023-05-25T10:28:00.695Z,883.64
2023-05-25T10:28:59.730Z,866.81
2023-05-25T10:29:59.672Z,887.62
2023-05-25T10:30:59.761Z,931.22
2023-05-25T10:31:59.736Z,960.68
2023-05-25T10:32:59.769Z,939.41
2023-05-25T10:33:59.639Z,968.48
2023-05-25T10:34:59.602Z,952.91
2023-05-25T10:36:09.358Z,958.87
2023-05-25T10:37:00.569Z,985.52
2023-05-25T10:37:59.555Z,1014.29
2023-05-25T10:38:59.580Z,997.42
2023-05-25T10:39:59.547Z,940.42
2023-05-25T10:40:59.515Z,908.48
2023-05-25T10:41:59.507Z,927.77
2023-05-25T10:42:59.507Z,879.45
2023-05-25T10:43:59.486Z,908.42
2023-05-25T10:44:59.488Z,931.07
2023-05-25T10:46:02.477Z,958.38
2023-05-25T10:47:02.498Z,986.14
2023-05-25T10:47:59.479Z,1017.24
2023-05-25T10:48:59.414Z,1002.24
2023-05-25T10:49:59.409Z,1010.58
2023-05-25T10:50:59.556Z,988.36
2023-05-25T10:51:59.368Z,997.08
2023-05-25T10:52:59.357Z,963.22
2023-05-25T10:53:59.351Z,921.18
2023-05-25T10:54:59.345Z,902.91
2023-05-25T10:55:59.320Z,958.88
2023-05-25T10:56:59.356Z,997.49
2023-05-25T10:57:59.315Z,1019.82
2023-05-25T10:58:59.285Z,988.42
2023-05-25T10:59:59.293Z,989.16
2023-05-25T11:00:59.345Z,1015.17
2023-05-25T11:01:59.280Z,989.38
2023-05-25T11:02:59.320Z,946.21
2023-05-25T11:03:59.281Z,913.63
2023-05-25T11:04:59.212Z,885.23
2023-05-25T11:06:02.198Z,890.63
2023-05-25T11:07:02.191Z,951.95
2023-05-25T11:07:59.156Z,939.39
2023-05-25T11:08:59.222Z,948.11
2023-05-25T11:09:59.154Z,925.06
2023-05-25T11:10:59.156Z,942.95
2023-05-25T11:11:59.126Z,927.53
2023-05-25T11:12:59.109Z,941.82
2023-05-25T11:13:59.085Z,920.22
2023-05-25T11:14:59.132Z,935.04
2023-05-25T11:15:59.057Z,967.94
2023-05-25T11:16:59.079Z,993.45
2023-05-25T11:17:59.100Z,957.44
2023-05-25T11:18:59.017Z,915.85
2023-05-25T11:19:59.037Z,883.51
2023-05-25T11:20:59.016Z,899.19
2023-05-25T11:21:58.981Z,898.26
2023-05-25T11:22:58.979Z,900.42
2023-05-25T11:23:58.949Z,913.76
2023-05-25T11:24:58.946Z,888.30
2023-05-25T11:26:02.003Z,866.81
2023-05-25T11:27:01.907Z,847.87
2023-05-25T11:27:58.887Z,860.50
2023-05-25T11:28:58.905Z,860.50
2023-05-25T11:29:58.869Z,861.76
2023-05-25T11:30:58.881Z,860.50
2023-05-25T11:31:58.884Z,856.71
2023-05-25T11:32:58.948Z,875.66
2023-05-25T11:33:58.804Z,864.29
2023-05-25T11:34:58.867Z,830.20
2023-05-25T11:35:58.802Z,789.86
2023-05-25T11:36:58.755Z,760.90
2023-05-25T11:37:58.775Z,754.60
2023-05-25T11:39:58.724Z,815.07
2023-05-25T11:40:58.697Z,873.13
2023-05-25T11:41:58.693Z,889.06
2023-05-25T11:42:58.748Z,915.18
2023-05-25T11:43:58.681Z,910.36
2023-05-25T11:44:58.649Z,891.76
2023-05-25T11:46:01.652Z,906.45
2023-05-25T11:47:01.915Z,935.44
2023-05-25T11:47:58.685Z,923.78
2023-05-25T11:48:58.617Z,911.55
2023-05-25T11:49:58.572Z,883.24
2023-05-25T11:50:58.560Z,879.45
2023-05-25T11:51:58.559Z,870.60
2023-05-25T11:52:58.555Z,866.81
2023-05-25T11:53:58.548Z,887.30
2023-05-25T11:54:58.545Z,831.47
2023-05-25T11:56:07.570Z,823.90
2023-05-25T11:56:59.686Z,813.81
2023-05-25T11:57:58.468Z,802.46
2023-05-25T11:58:58.450Z,807.50
2023-05-25T11:59:58.449Z,794.90
2023-05-25T12:00:58.474Z,797.42
2023-05-25T12:01:58.399Z,826.42
2023-05-25T12:02:58.498Z,823.90
2023-05-25T12:03:58.644Z,791.12
2023-05-25T12:04:58.496Z,804.98
2023-05-25T12:06:01.425Z,811.28
2023-05-25T12:07:01.351Z,837.77
2023-05-25T12:07:58.359Z,812.55
2023-05-25T12:08:58.303Z,847.87
2023-05-25T12:09:58.289Z,812.55
2023-05-25T12:10:58.291Z,856.71
2023-05-25T12:11:58.265Z,807.50